Time;durP1;ratioP1;P1;durP2;ratioP2;P2;SDS_P1;SDS_P2;PMS_P1;PMS_P2;Temp;Humidity;BMP_temperature;BMP_pressure;BME280_temperature;BME280_humidity;BME280_pressure;Samples;Min_cycle;Max_cycle;Signal;HPM_P1;HPM_P2
2024/01/26 00:00:17;;;;;;;80.30;32.03;;;;;;;;;;5107172;28;20285;-61
2024/01/26 00:02:43;;;;;;;85.43;33.88;;;;;;;;;;5104150;28;20032;-62
2024/01/26 00:05:09;;;;;;;78.13;32.80;;;;;;;;;;5102249;28;20035;-62
2024/01/26 00:07:34;;;;;;;74.78;30.92;;;;;;;;;;5120288;28;20028;-62
2024/01/26 00:09:59;;;;;;;81.07;32.53;;;;;;;;;;5115515;28;20038;-62
2024/01/26 00:12:25;;;;;;;83.00;32.90;;;;;;;;;;5108642;28;20020;-61
2024/01/26 00:14:50;;;;;;;84.37;33.17;;;;;;;;;;5114501;28;20047;-62
2024/01/26 00:17:15;;;;;;;87.18;33.30;;;;;;;;;;5120440;28;20032;-61
2024/01/26 00:19:41;;;;;;;90.43;34.77;;;;;;;;;;5120919;28;20031;-62
2024/01/26 00:22:06;;;;;;;93.40;35.45;;;;;;;;;;5118898;28;20035;-61
2024/01/26 00:24:32;;;;;;;78.53;33.37;;;;;;;;;;5103410;28;20056;-62
2024/01/26 00:26:58;;;;;;;79.57;33.93;;;;;;;;;;5113255;28;20295;-61
2024/01/26 00:29:23;;;;;;;80.22;33.78;;;;;;;;;;5123342;28;20024;-62
2024/01/26 00:31:49;;;;;;;85.80;34.70;;;;;;;;;;5118168;28;20130;-62
2024/01/26 00:34:14;;;;;;;73.95;32.30;;;;;;;;;;5100463;28;20037;-61
2024/01/26 00:36:40;;;;;;;73.32;31.73;;;;;;;;;;5112082;28;20040;-62
2024/01/26 00:39:06;;;;;;;83.97;36.20;;;;;;;;;;5119229;28;20039;-63
2024/01/26 00:41:32;;;;;;;82.00;36.60;;;;;;;;;;5119812;28;20036;-63
2024/01/26 00:43:58;;;;;;;88.27;35.50;;;;;;;;;;5118190;28;20272;-63
2024/01/26 00:46:23;;;;;;;88.67;35.77;;;;;;;;;;5112600;28;20295;-63
2024/01/26 00:48:49;;;;;;;82.70;34.88;;;;;;;;;;5117339;28;20040;-62
2024/01/26 00:51:14;;;;;;;91.70;37.20;;;;;;;;;;5117492;28;20103;-62
2024/01/26 00:53:40;;;;;;;82.97;33.45;;;;;;;;;;5117769;28;20102;-62
2024/01/26 00:56:05;;;;;;;77.93;32.13;;;;;;;;;;5117993;28;20036;-62
2024/01/26 00:58:31;;;;;;;76.72;31.75;;;;;;;;;;5130458;28;20027;-62
2024/01/26 01:00:56;;;;;;;76.73;32.90;;;;;;;;;;5129478;28;20035;-62
2024/01/26 01:03:22;;;;;;;76.33;30.47;;;;;;;;;;5106652;28;20344;-62
2024/01/26 01:05:47;;;;;;;67.73;29.27;;;;;;;;;;5103447;28;20272;-62
2024/01/26 01:08:13;;;;;;;73.50;28.45;;;;;;;;;;5116998;28;20024;-62
2024/01/26 01:10:38;;;;;;;72.53;29.00;;;;;;;;;;5123221;28;20028;-62
2024/01/26 01:13:10;;;;;;;62.17;27.20;;;;;;;;;;5107486;28;20033;-61
2024/01/26 01:15:37;;;;;;;71.40;29.60;;;;;;;;;;5109247;28;20028;-62
2024/01/26 01:18:03;;;;;;;69.77;29.20;;;;;;;;;;5120948;28;20260;-62
2024/01/26 01:20:29;;;;;;;56.57;25.97;;;;;;;;;;5116615;28;20305;-63
2024/01/26 01:22:57;;;;;;;57.45;27.42;;;;;;;;;;5104541;28;20260;-62
2024/01/26 01:25:22;;;;;;;56.00;28.07;;;;;;;;;;5114874;28;20046;-62
2024/01/26 01:27:48;;;;;;;72.28;28.20;;;;;;;;;;5122013;28;20276;-62
2024/01/26 01:30:14;;;;;;;57.90;27.25;;;;;;;;;;5115943;28;20046;-62
2024/01/26 01:32:39;;;;;;;62.43;28.00;;;;;;;;;;5116961;28;20031;-61
2024/01/26 01:35:05;;;;;;;57.40;26.53;;;;;;;;;;5116710;28;20324;-62
2024/01/26 01:37:30;;;;;;;64.88;28.08;;;;;;;;;;5111992;28;20028;-63
2024/01/26 01:39:56;;;;;;;67.03;28.97;;;;;;;;;;5123054;28;20032;-63
2024/01/26 01:42:22;;;;;;;57.95;27.20;;;;;;;;;;5114488;28;20055;-61
2024/01/26 01:44:47;;;;;;;67.10;27.27;;;;;;;;;;5108277;28;20032;-62
2024/01/26 01:47:14;;;;;;;60.85;27.23;;;;;;;;;;5118791;28;20086;-62
2024/01/26 01:49:41;;;;;;;66.82;29.05;;;;;;;;;;5117047;28;20046;-61
2024/01/26 01:52:17;;;;;;;65.73;25.47;;;;;;;;;;5118190;28;20058;-62
2024/01/26 01:54:43;;;;;;;66.55;26.15;;;;;;;;;;5115979;28;20264;-61
2024/01/26 01:57:12;;;;;;;68.03;28.20;;;;;;;;;;5121904;28;20132;-63
2024/01/26 01:59:38;;;;;;;70.90;29.47;;;;;;;;;;5117955;28;20032;-62
2024/01/26 02:02:04;;;;;;;71.63;28.70;;;;;;;;;;5116656;28;20280;-62
2024/01/26 02:04:30;;;;;;;71.90;29.40;;;;;;;;;;5116491;28;20044;-62
2024/01/26 02:06:57;;;;;;;65.20;26.73;;;;;;;;;;5100039;28;20028;-62
2024/01/26 02:09:23;;;;;;;61.63;27.53;;;;;;;;;;5114542;28;20050;-63
2024/01/26 02:11:48;;;;;;;63.77;26.17;;;;;;;;;;5114444;28;20340;-62
2024/01/26 02:14:14;;;;;;;62.42;27.75;;;;;;;;;;5116517;28;20031;-61
2024/01/26 02:16:51;;;;;;;56.53;25.37;;;;;;;;;;5116127;28;20032;-63
2024/01/26 02:19:16;;;;;;;61.03;23.48;;;;;;;;;;5118077;28;20047;-62
2024/01/26 02:21:42;;;;;;;60.40;24.88;;;;;;;;;;5111608;28;20032;-63
2024/01/26 02:24:07;;;;;;;53.90;24.67;;;;;;;;;;5107405;28;20059;-62
2024/01/26 02:26:33;;;;;;;56.35;23.90;;;;;;;;;;5115941;28;20070;-62
2024/01/26 02:28:58;;;;;;;54.87;24.13;;;;;;;;;;5115402;28;20035;-62
2024/01/26 02:31:24;;;;;;;53.00;22.20;;;;;;;;;;5109023;28;20080;-62
2024/01/26 02:33:50;;;;;;;51.87;22.50;;;;;;;;;;5115759;28;20058;-62
2024/01/26 02:36:15;;;;;;;50.15;21.85;;;;;;;;;;5114829;28;20091;-62
2024/01/26 02:38:40;;;;;;;51.23;21.27;;;;;;;;;;5116653;28;20036;-62
2024/01/26 02:41:05;;;;;;;41.87;19.57;;;;;;;;;;5115798;28;20032;-62
2024/01/26 02:43:31;;;;;;;40.63;18.17;;;;;;;;;;5115757;28;20028;-62
2024/01/26 02:45:57;;;;;;;37.63;18.07;;;;;;;;;;5104676;28;20032;-61
2024/01/26 02:48:23;;;;;;;41.00;17.73;;;;;;;;;;5102150;28;20272;-61
2024/01/26 02:50:49;;;;;;;40.03;17.38;;;;;;;;;;5119587;28;20279;-61
2024/01/26 02:53:14;;;;;;;35.73;16.53;;;;;;;;;;5119275;28;20040;-62
2024/01/26 02:55:40;;;;;;;35.35;15.55;;;;;;;;;;5114979;28;20256;-62
2024/01/26 02:58:06;;;;;;;28.73;13.53;;;;;;;;;;5117048;28;20057;-61
2024/01/26 03:00:31;;;;;;;42.47;15.00;;;;;;;;;;5115124;28;20118;-61
2024/01/26 03:02:57;;;;;;;31.08;14.30;;;;;;;;;;5115303;28;20039;-62
2024/01/26 03:05:22;;;;;;;27.23;13.60;;;;;;;;;;5109642;28;20024;-61
2024/01/26 03:07:48;;;;;;;22.73;12.02;;;;;;;;;;5107143;28;20432;-61
2024/01/26 03:10:13;;;;;;;26.10;11.87;;;;;;;;;;5116167;28;20039;-61
2024/01/26 03:12:39;;;;;;;25.33;11.87;;;;;;;;;;5115227;28;20296;-61
2024/01/26 03:15:04;;;;;;;21.13;11.17;;;;;;;;;;5109522;28;20291;-61
2024/01/26 03:17:30;;;;;;;23.00;10.95;;;;;;;;;;5114518;28;20083;-62
2024/01/26 03:19:57;;;;;;;23.27;9.60;;;;;;;;;;5111677;28;20032;-61
2024/01/26 03:22:23;;;;;;;22.60;10.40;;;;;;;;;;5115336;28;20020;-62
2024/01/26 03:24:49;;;;;;;23.27;10.07;;;;;;;;;;5100852;28;20268;-61
2024/01/26 03:27:14;;;;;;;18.90;9.47;;;;;;;;;;5108177;28;20106;-61
2024/01/26 03:29:40;;;;;;;19.13;10.33;;;;;;;;;;5120647;28;20290;-61
2024/01/26 03:32:05;;;;;;;25.83;11.23;;;;;;;;;;5124550;28;20272;-62
2024/01/26 03:34:31;;;;;;;19.15;9.50;;;;;;;;;;5101518;28;20436;-61
2024/01/26 03:36:56;;;;;;;18.93;9.20;;;;;;;;;;5107406;28;20034;-61
2024/01/26 03:39:22;;;;;;;21.85;11.07;;;;;;;;;;5122797;28;20031;-61
2024/01/26 03:41:49;;;;;;;17.83;9.73;;;;;;;;;;5119700;28;20035;-62
2024/01/26 03:44:14;;;;;;;19.77;9.53;;;;;;;;;;5094770;28;20032;-61
2024/01/26 03:46:43;;;;;;;20.70;10.23;;;;;;;;;;5105022;28;20268;-61
2024/01/26 03:49:09;;;;;;;22.83;9.93;;;;;;;;;;5116069;28;20271;-62
2024/01/26 03:51:37;;;;;;;17.77;9.47;;;;;;;;;;5107499;28;20264;-61
2024/01/26 03:54:03;;;;;;;18.83;9.90;;;;;;;;;;5115843;28;20036;-62
2024/01/26 03:56:28;;;;;;;21.90;9.40;;;;;;;;;;5114667;28;20313;-62
2024/01/26 03:58:54;;;;;;;22.45;10.38;;;;;;;;;;5105747;28;20035;-61
2024/01/26 04:01:20;;;;;;;20.57;10.40;;;;;;;;;;5103463;28;20064;-62
2024/01/26 04:03:45;;;;;;;;;;;;;;;;;;5115109;28;20039;-62
2024/01/26 04:06:11;;;;;;;20.77;9.98;;;;;;;;;;5095640;28;19912;-62
2024/01/26 04:08:36;;;;;;;19.05;9.98;;;;;;;;;;5108787;28;20028;-61
2024/01/26 04:11:02;;;;;;;20.03;9.33;;;;;;;;;;5119871;28;20036;-62
2024/01/26 04:13:27;;;;;;;19.20;10.50;;;;;;;;;;5110965;28;20088;-61
2024/01/26 04:15:53;;;;;;;17.00;9.00;;;;;;;;;;5102932;28;20047;-61
2024/01/26 04:18:19;;;;;;;18.87;9.63;;;;;;;;;;5111545;28;20063;-61
2024/01/26 04:20:46;;;;;;;17.70;9.85;;;;;;;;;;5124737;28;20032;-61
2024/01/26 04:23:11;;;;;;;14.50;8.43;;;;;;;;;;5113423;28;20077;-61
2024/01/26 04:25:37;;;;;;;16.63;9.18;;;;;;;;;;5110684;28;20249;-62
2024/01/26 04:28:02;;;;;;;19.90;10.23;;;;;;;;;;5108788;28;20032;-61
2024/01/26 04:30:28;;;;;;;24.80;11.07;;;;;;;;;;5120315;28;20039;-62
2024/01/26 04:32:54;;;;;;;20.95;9.85;;;;;;;;;;5114130;28;20035;-63
2024/01/26 04:35:20;;;;;;;17.53;8.30;;;;;;;;;;5113196;28;20027;-62
2024/01/26 04:37:45;;;;;;;23.63;12.02;;;;;;;;;;5114277;28;20031;-62
2024/01/26 04:40:11;;;;;;;20.03;10.90;;;;;;;;;;5115560;28;20059;-61
2024/01/26 04:42:38;;;;;;;18.60;9.70;;;;;;;;;;5118054;28;20024;-61
2024/01/26 04:45:04;;;;;;;18.90;10.50;;;;;;;;;;5106262;28;20320;-62
2024/01/26 04:47:29;;;;;;;22.27;10.43;;;;;;;;;;5113197;28;20257;-62
2024/01/26 04:49:54;;;;;;;20.70;11.73;;;;;;;;;;5108289;28;20036;-62
2024/01/26 04:52:20;;;;;;;17.80;9.93;;;;;;;;;;5119686;28;20028;-62
2024/01/26 04:54:46;;;;;;;17.02;10.77;;;;;;;;;;5113731;28;20046;-62
2024/01/26 04:57:12;;;;;;;18.58;10.90;;;;;;;;;;5114016;28;20043;-62
2024/01/26 04:59:37;;;;;;;17.53;9.90;;;;;;;;;;5118704;28;20031;-61
2024/01/26 05:02:03;;;;;;;19.20;11.27;;;;;;;;;;5125773;28;20288;-64
2024/01/26 05:04:28;;;;;;;19.58;11.95;;;;;;;;;;5112654;28;20032;-62
2024/01/26 05:06:55;;;;;;;23.35;12.70;;;;;;;;;;5117232;28;20028;-62
2024/01/26 05:09:21;;;;;;;27.00;11.93;;;;;;;;;;5116539;28;20016;-61
2024/01/26 05:11:46;;;;;;;24.60;11.50;;;;;;;;;;5119038;28;20341;-61
2024/01/26 05:14:12;;;;;;;24.87;12.10;;;;;;;;;;5116050;28;20273;-62
2024/01/26 05:16:37;;;;;;;25.30;12.85;;;;;;;;;;5110273;28;20046;-62
2024/01/26 05:19:04;;;;;;;23.85;12.50;;;;;;;;;;5116320;28;20044;-61
2024/01/26 05:21:29;;;;;;;24.17;13.55;;;;;;;;;;5121641;28;20045;-61
2024/01/26 05:23:55;;;;;;;22.20;13.70;;;;;;;;;;5116726;28;20040;-61
2024/01/26 05:26:20;;;;;;;20.10;12.20;;;;;;;;;;5101847;28;20048;-61
2024/01/26 05:28:46;;;;;;;21.45;11.73;;;;;;;;;;5116677;28;20059;-61
2024/01/26 05:31:12;;;;;;;29.90;12.37;;;;;;;;;;5120525;28;20047;-61
2024/01/26 05:33:38;;;;;;;29.48;13.20;;;;;;;;;;5117339;28;20024;-62
2024/01/26 05:36:04;;;;;;;19.95;11.65;;;;;;;;;;5104281;28;20039;-62
2024/01/26 05:38:29;;;;;;;20.50;12.27;;;;;;;;;;5116424;28;20051;-62
2024/01/26 05:40:55;;;;;;;21.73;12.33;;;;;;;;;;5117938;28;20095;-62
2024/01/26 05:43:21;;;;;;;24.00;12.68;;;;;;;;;;5123895;28;20336;-62
2024/01/26 05:45:46;;;;;;;24.80;12.97;;;;;;;;;;5116257;28;20033;-63
2024/01/26 05:48:12;;;;;;;21.73;11.17;;;;;;;;;;5114366;28;20038;-63
2024/01/26 05:50:38;;;;;;;29.23;12.57;;;;;;;;;;5122719;28;20091;-62
2024/01/26 05:53:03;;;;;;;33.78;13.98;;;;;;;;;;5119071;28;20036;-63
2024/01/26 05:55:29;;;;;;;36.00;14.48;;;;;;;;;;5116734;28;20063;-66
2024/01/26 05:57:55;;;;;;;37.78;16.35;;;;;;;;;;5107277;28;20036;-63
2024/01/26 06:00:20;;;;;;;27.93;14.80;;;;;;;;;;5120429;28;20028;-65
2024/01/26 06:02:46;;;;;;;31.47;13.60;;;;;;;;;;5117954;28;20261;-65
2024/01/26 06:05:11;;;;;;;30.30;15.60;;;;;;;;;;5112166;28;20024;-65
2024/01/26 06:07:37;;;;;;;29.17;14.25;;;;;;;;;;5109666;28;20028;-65
2024/01/26 06:10:02;;;;;;;30.23;14.95;;;;;;;;;;5110795;28;20062;-64
2024/01/26 06:12:27;;;;;;;37.23;13.07;;;;;;;;;;5120699;28;20067;-65
2024/01/26 06:14:53;;;;;;;34.10;12.73;;;;;;;;;;5116270;28;20028;-65
2024/01/26 06:17:18;;;;;;;39.50;15.47;;;;;;;;;;5113262;28;20070;-65
2024/01/26 06:19:44;;;;;;;32.05;12.32;;;;;;;;;;5100426;28;20491;-65
2024/01/26 06:22:10;;;;;;;37.67;14.70;;;;;;;;;;5118677;28;20028;-66
2024/01/26 06:24:35;;;;;;;29.53;13.20;;;;;;;;;;5105584;28;20031;-65
2024/01/26 06:27:00;;;;;;;30.43;15.37;;;;;;;;;;5112651;28;20024;-65
2024/01/26 06:29:26;;;;;;;27.60;13.50;;;;;;;;;;5116225;28;20105;-65
2024/01/26 06:31:52;;;;;;;25.23;13.73;;;;;;;;;;5113049;28;20044;-65
2024/01/26 06:34:17;;;;;;;28.77;12.77;;;;;;;;;;5115665;28;20276;-65
2024/01/26 06:36:43;;;;;;;28.25;14.35;;;;;;;;;;5115590;28;20089;-66
2024/01/26 06:39:08;;;;;;;2.40;2.15;;;;;;;;;;5105666;28;20051;-65
2024/01/26 06:41:35;;;;;;;7.93;1.33;;;;;;;;;;5114404;28;20093;-64
2024/01/26 06:44:02;;;;;;;1.23;1.13;;;;;;;;;;5115651;28;20021;-66
2024/01/26 06:46:28;;;;;;;0.70;0.70;;;;;;;;;;5110918;28;20260;-65
2024/01/26 06:48:53;;;;;;;0.50;0.50;;;;;;;;;;5095939;28;20257;-65
2024/01/26 06:51:19;;;;;;;2.83;2.63;;;;;;;;;;5118466;28;20268;-65
2024/01/26 06:53:44;;;;;;;0.88;0.88;;;;;;;;;;5133552;28;20031;-65
2024/01/26 06:56:10;;;;;;;0.57;0.53;;;;;;;;;;5116150;28;20063;-65
2024/01/26 06:58:35;;;;;;;1.10;1.10;;;;;;;;;;5110726;28;20035;-65
2024/01/26 07:01:00;;;;;;;1.17;1.17;;;;;;;;;;5119559;28;20048;-65
2024/01/26 07:03:26;;;;;;;1.08;1.05;;;;;;;;;;5127908;28;20452;-64
2024/01/26 07:05:52;;;;;;;1.57;1.40;;;;;;;;;;5109104;28;20047;-65
2024/01/26 07:08:17;;;;;;;1.95;1.85;;;;;;;;;;5107113;28;20024;-65
2024/01/26 07:10:43;;;;;;;1.50;1.30;;;;;;;;;;5106920;28;20040;-65
2024/01/26 07:13:08;;;;;;;0.73;0.73;;;;;;;;;;5115731;28;20348;-65
2024/01/26 07:15:35;;;;;;;0.98;0.98;;;;;;;;;;5114966;28;20085;-66
2024/01/26 07:18:00;;;;;;;0.20;0.20;;;;;;;;;;5104035;28;20105;-65
2024/01/26 07:20:25;;;;;;;0.63;0.63;;;;;;;;;;5106968;28;20031;-65
2024/01/26 07:22:51;;;;;;;8.07;2.63;;;;;;;;;;5109516;28;20047;-66
2024/01/26 07:25:19;;;;;;;1.00;0.83;;;;;;;;;;5106726;28;20035;-65
2024/01/26 07:27:48;;;;;;;3.53;2.93;;;;;;;;;;5110304;28;20024;-65
2024/01/26 07:30:15;;;;;;;0.87;0.87;;;;;;;;;;5112179;28;20257;-65
2024/01/26 07:32:40;;;;;;;2.53;2.33;;;;;;;;;;5120504;28;20264;-65
2024/01/26 07:35:06;;;;;;;1.67;1.60;;;;;;;;;;5119363;28;20310;-66
2024/01/26 07:37:32;;;;;;;3.45;3.22;;;;;;;;;;5114174;28;20265;-65
2024/01/26 07:39:58;;;;;;;0.22;0.22;;;;;;;;;;5113673;28;20043;-65
2024/01/26 07:42:23;;;;;;;4.33;2.17;;;;;;;;;;5112610;28;20047;-65
2024/01/26 07:44:49;;;;;;;1.33;1.30;;;;;;;;;;5112444;28;20039;-64
2024/01/26 07:47:14;;;;;;;3.93;3.53;;;;;;;;;;5105643;28;20028;-64
2024/01/26 07:49:39;;;;;;;1.37;1.30;;;;;;;;;;5100702;28;20271;-65
2024/01/26 07:52:05;;;;;;;2.57;2.37;;;;;;;;;;5119300;28;20039;-65
2024/01/26 07:54:31;;;;;;;4.55;1.05;;;;;;;;;;5124978;28;20027;-65
2024/01/26 07:56:56;;;;;;;0.93;0.90;;;;;;;;;;5104529;28;20032;-64
2024/01/26 07:59:22;;;;;;;2.50;2.13;;;;;;;;;;5111674;28;20036;-65
2024/01/26 08:01:47;;;;;;;1.02;1.02;;;;;;;;;;5113930;28;20057;-64
2024/01/26 08:04:13;;;;;;;1.03;1.03;;;;;;;;;;5113111;28;20043;-64
2024/01/26 08:06:39;;;;;;;31.35;15.95;;;;;;;;;;5105602;28;20322;-66
2024/01/26 08:09:04;;;;;;;34.20;17.63;;;;;;;;;;5101415;28;20035;-64
2024/01/26 08:11:30;;;;;;;30.65;16.88;;;;;;;;;;5107466;28;20038;-65
2024/01/26 08:13:58;;;;;;;28.83;16.33;;;;;;;;;;5111339;28;20075;-65
2024/01/26 08:16:24;;;;;;;41.63;17.60;;;;;;;;;;5110494;28;20024;-65
2024/01/26 08:18:49;;;;;;;46.10;19.30;;;;;;;;;;5112713;28;20310;-65
2024/01/26 08:21:15;;;;;;;38.63;18.98;;;;;;;;;;5107549;28;20067;-64
2024/01/26 08:23:40;;;;;;;40.38;20.77;;;;;;;;;;5111752;28;20035;-64
2024/01/26 08:26:06;;;;;;;43.17;21.03;;;;;;;;;;5110035;28;20049;-65
2024/01/26 08:28:32;;;;;;;49.75;23.45;;;;;;;;;;5116343;28;20031;-65
2024/01/26 08:30:57;;;;;;;33.90;17.10;;;;;;;;;;5107625;28;20037;-64
2024/01/26 08:33:22;;;;;;;35.20;17.60;;;;;;;;;;5113238;28;20035;-64
2024/01/26 08:35:48;;;;;;;41.73;18.50;;;;;;;;;;5111652;28;20040;-63
2024/01/26 08:38:13;;;;;;;37.60;17.60;;;;;;;;;;5120140;28;20332;-64
2024/01/26 08:40:39;;;;;;;28.73;14.82;;;;;;;;;;5108681;28;20032;-63
2024/01/26 08:43:05;;;;;;;31.33;14.13;;;;;;;;;;5111343;28;20084;-64
2024/01/26 08:45:30;;;;;;;27.05;12.82;;;;;;;;;;5115600;28;20103;-64
2024/01/26 08:47:56;;;;;;;30.17;14.35;;;;;;;;;;5109119;28;20048;-64
2024/01/26 08:50:21;;;;;;;28.50;13.27;;;;;;;;;;5116296;28;20027;-63
2024/01/26 08:52:46;;;;;;;29.97;12.97;;;;;;;;;;5108589;28;20268;-65
2024/01/26 08:55:12;;;;;;;22.53;12.23;;;;;;;;;;5109956;28;20039;-64
2024/01/26 08:57:37;;;;;;;23.20;11.03;;;;;;;;;;5115700;28;20028;-63
2024/01/26 09:00:08;;;;;;;20.33;9.50;;;;;;;;;;5107190;28;20047;-63
2024/01/26 09:02:34;;;;;;;28.60;9.83;;;;;;;;;;5113908;28;20020;-64
2024/01/26 09:05:01;;;;;;;18.73;7.47;;;;;;;;;;5119331;28;20300;-64
2024/01/26 09:07:27;;;;;;;23.67;8.10;;;;;;;;;;5116038;28;20269;-63
2024/01/26 09:09:53;;;;;;;28.65;8.15;;;;;;;;;;5106368;28;20503;-63
2024/01/26 09:12:18;;;;;;;19.48;7.00;;;;;;;;;;5107024;28;20036;-64
2024/01/26 09:14:44;;;;;;;30.85;7.30;;;;;;;;;;5113446;28;20028;-64
2024/01/26 09:17:09;;;;;;;36.27;8.20;;;;;;;;;;5118161;28;20047;-64
2024/01/26 09:19:35;;;;;;;23.03;5.60;;;;;;;;;;5109535;28;20028;-64
2024/01/26 09:22:00;;;;;;;37.83;6.00;;;;;;;;;;5116702;28;20092;-63
2024/01/26 09:24:26;;;;;;;22.77;4.63;;;;;;;;;;5122141;28;20024;-64
2024/01/26 09:26:52;;;;;;;6.47;2.57;;;;;;;;;;5114738;28;20050;-64
2024/01/26 09:29:18;;;;;;;16.58;3.15;;;;;;;;;;5098951;28;20265;-63
2024/01/26 09:31:43;;;;;;;18.05;3.10;;;;;;;;;;5105078;28;20031;-63
2024/01/26 09:34:09;;;;;;;17.87;3.30;;;;;;;;;;5114401;28;20043;-64
2024/01/26 09:36:34;;;;;;;25.35;3.85;;;;;;;;;;5105830;28;20518;-63
2024/01/26 09:39:00;;;;;;;17.70;3.13;;;;;;;;;;5106666;28;20047;-63
2024/01/26 09:41:25;;;;;;;12.77;3.45;;;;;;;;;;5111754;28;20035;-64
2024/01/26 09:43:51;;;;;;;16.23;3.33;;;;;;;;;;5116109;28;20087;-63
2024/01/26 09:46:16;;;;;;;10.60;3.13;;;;;;;;;;5108146;28;20129;-63
2024/01/26 09:48:43;;;;;;;22.30;3.05;;;;;;;;;;5105679;28;20042;-64
2024/01/26 09:51:09;;;;;;;19.33;3.73;;;;;;;;;;5115743;28;20027;-64
2024/01/26 09:53:34;;;;;;;23.67;3.20;;;;;;;;;;5115163;28;20279;-64
2024/01/26 09:56:00;;;;;;;23.13;2.80;;;;;;;;;;5126885;28;20091;-63
2024/01/26 09:58:26;;;;;;;21.67;4.03;;;;;;;;;;5116629;28;20032;-64
2024/01/26 10:00:54;;;;;;;13.95;2.80;;;;;;;;;;5105877;28;20061;-64
2024/01/26 10:03:22;;;;;;;9.70;1.80;;;;;;;;;;5115545;28;20071;-64
2024/01/26 10:05:47;;;;;;;17.97;2.47;;;;;;;;;;5112067;28;20257;-64
2024/01/26 10:08:13;;;;;;;14.87;2.40;;;;;;;;;;5110513;28;20301;-65
2024/01/26 10:10:41;;;;;;;12.17;2.20;;;;;;;;;;5109104;28;20092;-64
2024/01/26 10:13:06;;;;;;;14.07;2.43;;;;;;;;;;5114081;28;20289;-63
2024/01/26 10:15:32;;;;;;;16.20;2.33;;;;;;;;;;5121813;28;20269;-63
2024/01/26 10:17:57;;;;;;;26.45;3.20;;;;;;;;;;5110736;28;20029;-63
2024/01/26 10:20:23;;;;;;;26.97;3.17;;;;;;;;;;5111769;28;20055;-63
2024/01/26 10:22:49;;;;;;;20.10;3.40;;;;;;;;;;5106940;28;20032;-62
2024/01/26 10:25:15;;;;;;;26.17;3.53;;;;;;;;;;5108530;28;20044;-62
2024/01/26 10:27:41;;;;;;;20.20;3.50;;;;;;;;;;5107648;28;20035;-62
2024/01/26 10:30:07;;;;;;;25.83;3.17;;;;;;;;;;5117382;28;20261;-63
2024/01/26 10:32:33;;;;;;;21.83;3.70;;;;;;;;;;5114493;28;20032;-62
2024/01/26 10:35:02;;;;;;;14.55;2.15;;;;;;;;;;5117443;28;20031;-63
2024/01/26 10:37:29;;;;;;;10.97;2.60;;;;;;;;;;5124505;28;20016;-62
2024/01/26 10:39:56;;;;;;;14.77;1.90;;;;;;;;;;5114444;28;20047;-62
2024/01/26 10:42:22;;;;;;;7.10;1.57;;;;;;;;;;5114688;28;20043;-62
2024/01/26 10:44:48;;;;;;;13.32;1.75;;;;;;;;;;5117503;28;20113;-62
2024/01/26 10:47:14;;;;;;;6.57;1.93;;;;;;;;;;5109942;28;20052;-61
2024/01/26 10:49:40;;;;;;;5.65;1.33;;;;;;;;;;5113096;28;20038;-61
2024/01/26 10:52:05;;;;;;;8.77;1.48;;;;;;;;;;5110724;28;20070;-62
2024/01/26 10:54:31;;;;;;;10.85;2.03;;;;;;;;;;5113443;28;20020;-62
2024/01/26 10:56:57;;;;;;;10.25;1.92;;;;;;;;;;5107287;28;20059;-62
2024/01/26 10:59:23;;;;;;;10.50;1.50;;;;;;;;;;5114414;28;20031;-62
2024/01/26 11:01:48;;;;;;;;;;;;;;;;;;5114188;28;20024;-62
2024/01/26 11:04:13;;;;;;;10.05;1.70;;;;;;;;;;5107513;28;19907;-62
2024/01/26 11:06:39;;;;;;;12.13;2.00;;;;;;;;;;5120384;28;20031;-63
2024/01/26 11:09:08;;;;;;;8.70;1.33;;;;;;;;;;5112243;28;20128;-63
2024/01/26 11:11:38;;;;;;;9.87;1.80;;;;;;;;;;5099874;28;20032;-62
2024/01/26 11:14:03;;;;;;;11.97;2.27;;;;;;;;;;5111632;28;20040;-62
2024/01/26 11:16:38;;;;;;;16.27;2.33;;;;;;;;;;5117143;28;20028;-62
2024/01/26 11:19:03;;;;;;;8.63;1.90;;;;;;;;;;5110007;28;20040;-62
2024/01/26 11:21:42;;;;;;;14.98;2.42;;;;;;;;;;5109711;28;20061;-62
2024/01/26 11:24:16;;;;;;;7.20;1.90;;;;;;;;;;5125581;28;20040;-62
2024/01/26 11:26:42;;;;;;;11.43;2.50;;;;;;;;;;5111916;28;20028;-62
2024/01/26 11:29:07;;;;;;;;;;;;;;;;;;5109694;28;20056;-62
2024/01/26 11:31:34;;;;;;;15.87;2.73;;;;;;;;;;5114710;28;19908;-62
2024/01/26 11:33:59;;;;;;;16.87;3.10;;;;;;;;;;5103965;28;20089;-61
2024/01/26 11:36:31;;;;;;;23.02;2.50;;;;;;;;;;5121077;28;20039;-62
2024/01/26 11:38:57;;;;;;;15.20;2.87;;;;;;;;;;5111281;28;20035;-61
2024/01/26 11:41:24;;;;;;;21.33;2.83;;;;;;;;;;5116430;28;20050;-62
2024/01/26 11:43:51;;;;;;;13.03;2.00;;;;;;;;;;5114152;28;20043;-62
2024/01/26 11:46:16;;;;;;;;;;;;;;;;;;5116065;28;20027;-62
2024/01/26 11:48:42;;;;;;;14.00;2.47;;;;;;;;;;5117049;28;19930;-62
2024/01/26 11:51:07;;;;;;;18.45;3.42;;;;;;;;;;5102920;28;20036;-62
2024/01/26 11:53:33;;;;;;;10.20;2.03;;;;;;;;;;5107111;28;20048;-62
2024/01/26 11:55:59;;;;;;;20.73;3.73;;;;;;;;;;5115707;28;20032;-63
2024/01/26 11:58:25;;;;;;;16.00;3.37;;;;;;;;;;5112729;28;20261;-62
2024/01/26 12:00:50;;;;;;;16.27;3.22;;;;;;;;;;5112413;28;20171;-61
2024/01/26 12:03:17;;;;;;;11.43;1.95;;;;;;;;;;5105429;28;20084;-62
2024/01/26 12:05:42;;;;;;;10.53;2.70;;;;;;;;;;5115352;28;20079;-61
2024/01/26 12:08:09;;;;;;;24.55;2.88;;;;;;;;;;5120043;28;20051;-61
2024/01/26 12:10:34;;;;;;;8.73;2.28;;;;;;;;;;5123536;28;20058;-62
2024/01/26 12:13:00;;;;;;;17.60;3.22;;;;;;;;;;5108455;28;20444;-62
2024/01/26 12:15:31;;;;;;;14.68;3.05;;;;;;;;;;5115122;28;20039;-62
2024/01/26 12:17:59;;;;;;;13.17;2.13;;;;;;;;;;5114869;28;20012;-61
2024/01/26 12:20:24;;;;;;;18.20;2.77;;;;;;;;;;5114709;28;20036;-61
2024/01/26 12:22:50;;;;;;;11.48;2.40;;;;;;;;;;5109766;28;20053;-61
2024/01/26 12:25:16;;;;;;;;;;;;;;;;;;5119332;28;20024;-62
2024/01/26 12:27:42;;;;;;;14.40;2.13;;;;;;;;;;5115488;28;19908;-61
2024/01/26 12:30:11;;;;;;;12.83;2.03;;;;;;;;;;5116374;28;20024;-62
2024/01/26 12:32:38;;;;;;;11.47;1.97;;;;;;;;;;5118338;28;20028;-63
2024/01/26 12:35:04;;;;;;;13.00;2.33;;;;;;;;;;5109238;28;20074;-62
2024/01/26 12:37:30;;;;;;;;;;;;;;;;;;5120879;28;20024;-62
2024/01/26 12:39:55;;;;;;;13.53;2.13;;;;;;;;;;5110660;28;19976;-61
2024/01/26 12:42:21;;;;;;;12.18;2.67;;;;;;;;;;5117876;28;20044;-62
2024/01/26 12:44:46;;;;;;;8.18;2.00;;;;;;;;;;5097326;28;20025;-62
2024/01/26 12:47:12;;;;;;;8.40;1.92;;;;;;;;;;5118523;28;20056;-61
2024/01/26 12:49:37;;;;;;;13.50;2.40;;;;;;;;;;5126587;28;20028;-62
2024/01/26 12:52:05;;;;;;;7.00;2.28;;;;;;;;;;5126130;28;20035;-62
2024/01/26 12:54:30;;;;;;;8.13;2.27;;;;;;;;;;5116762;28;20032;-61
2024/01/26 12:56:56;;;;;;;16.45;3.28;;;;;;;;;;5122021;28;20039;-61
2024/01/26 12:59:22;;;;;;;;;;;;;;;;;;5110063;28;20058;-62
2024/01/26 13:01:48;;;;;;;8.47;2.00;;;;;;;;;;5121864;28;19912;-62
2024/01/26 13:04:13;;;;;;;9.18;2.15;;;;;;;;;;5114878;28;20053;-62
2024/01/26 13:06:39;;;;;;;8.25;2.13;;;;;;;;;;5117110;28;20055;-61
2024/01/26 13:09:07;;;;;;;15.90;2.70;;;;;;;;;;5123408;28;20032;-62
2024/01/26 13:11:33;;;;;;;8.67;2.17;;;;;;;;;;5105310;28;20033;-61
2024/01/26 13:13:59;;;;;;;13.82;2.80;;;;;;;;;;5115310;28;20063;-62
2024/01/26 13:16:25;;;;;;;18.33;2.90;;;;;;;;;;5121166;28;20035;-61
2024/01/26 13:18:50;;;;;;;15.13;3.25;;;;;;;;;;5116929;28;20066;-61
2024/01/26 13:21:17;;;;;;;14.33;3.57;;;;;;;;;;5125437;28;20040;-62
2024/01/26 13:23:43;;;;;;;9.83;2.53;;;;;;;;;;5113612;28;20032;-62
2024/01/26 13:26:09;;;;;;;11.85;3.00;;;;;;;;;;5109849;28;20028;-63
2024/01/26 13:28:37;;;;;;;15.95;3.03;;;;;;;;;;5119999;28;20028;-62
2024/01/26 13:31:03;;;;;;;20.87;4.13;;;;;;;;;;5122493;28;20035;-63
2024/01/26 13:33:28;;;;;;;16.90;2.90;;;;;;;;;;5112633;28;20032;-63
2024/01/26 13:35:54;;;;;;;19.23;3.03;;;;;;;;;;5109558;28;20036;-62
2024/01/26 13:38:20;;;;;;;11.70;2.37;;;;;;;;;;5116510;28;20043;-61
2024/01/26 13:40:50;;;;;;;15.10;3.38;;;;;;;;;;5119314;28;20292;-61
2024/01/26 13:43:19;;;;;;;14.00;2.93;;;;;;;;;;5117840;28;20032;-62
2024/01/26 13:45:44;;;;;;;14.30;2.57;;;;;;;;;;5108596;28;20028;-62
2024/01/26 13:48:10;;;;;;;19.02;2.92;;;;;;;;;;5120349;28;20050;-62
2024/01/26 13:50:35;;;;;;;16.27;2.75;;;;;;;;;;5109624;28;20055;-63
2024/01/26 13:53:00;;;;;;;16.17;2.97;;;;;;;;;;5107233;28;20024;-62
2024/01/26 13:55:26;;;;;;;13.05;3.53;;;;;;;;;;5116348;28;20607;-62
2024/01/26 13:57:52;;;;;;;24.92;4.10;;;;;;;;;;5114503;28;20082;-62
2024/01/26 14:00:19;;;;;;;14.25;2.45;;;;;;;;;;5111063;28;20110;-63
2024/01/26 14:02:44;;;;;;;13.82;2.65;;;;;;;;;;5114941;28;20039;-63
2024/01/26 14:05:10;;;;;;;15.38;2.83;;;;;;;;;;5113641;28;20028;-62
2024/01/26 14:07:36;;;;;;;25.88;3.15;;;;;;;;;;5108180;28;20031;-62
2024/01/26 14:10:01;;;;;;;14.80;2.53;;;;;;;;;;5116565;28;20031;-62
2024/01/26 14:12:27;;;;;;;20.63;3.23;;;;;;;;;;5120429;28;20064;-61
2024/01/26 14:14:53;;;;;;;18.67;3.00;;;;;;;;;;5097923;28;20115;-62
2024/01/26 14:17:19;;;;;;;20.17;3.77;;;;;;;;;;5112770;28;20036;-62
2024/01/26 14:19:46;;;;;;;20.77;2.23;;;;;;;;;;5111318;28;20271;-62